Time;durP1;ratioP1;P1;durP2;ratioP2;P2;SDS_P1;SDS_P2;PMS_P1;PMS_P2;Temp;Humidity;BMP_temperature;BMP_pressure;BME280_temperature;BME280_humidity;BME280_pressure;Samples;Min_cycle;Max_cycle;Signal;HPM_P1;HPM_P2
2023/08/27 00:00:07;;;;;;;10.15;6.85;;;;;;;;;;5023808;28;25131;-73
2023/08/27 00:02:33;;;;;;;9.85;5.88;;;;;;;;;;5026720;28;25048;-71
2023/08/27 00:04:59;;;;;;;7.60;6.38;;;;;;;;;;5025026;28;25114;-71
2023/08/27 00:07:25;;;;;;;7.47;6.68;;;;;;;;;;5023289;28;25171;-71
2023/08/27 00:09:51;;;;;;;8.65;6.70;;;;;;;;;;5029741;28;25113;-71
2023/08/27 00:12:17;;;;;;;7.88;6.85;;;;;;;;;;5038667;28;25102;-71
2023/08/27 00:14:43;;;;;;;9.80;6.45;;;;;;;;;;5017220;28;25103;-71
2023/08/27 00:17:10;;;;;;;10.38;7.43;;;;;;;;;;5025313;28;25072;-71
2023/08/27 00:19:36;;;;;;;8.40;6.60;;;;;;;;;;5024761;28;25069;-71
2023/08/27 00:22:03;;;;;;;9.45;6.18;;;;;;;;;;5024776;28;25075;-72
2023/08/27 00:24:29;;;;;;;8.88;6.07;;;;;;;;;;5030114;28;25059;-71
2023/08/27 00:26:55;;;;;;;7.18;5.68;;;;;;;;;;5021548;28;25136;-71
2023/08/27 00:29:21;;;;;;;8.15;6.40;;;;;;;;;;5022625;28;25065;-70
2023/08/27 00:31:47;;;;;;;9.82;6.22;;;;;;;;;;5026071;28;25128;-70
2023/08/27 00:34:13;;;;;;;9.63;6.00;;;;;;;;;;5026683;28;25060;-71
2023/08/27 00:36:39;;;;;;;5.53;5.00;;;;;;;;;;5024055;28;25063;-72
2023/08/27 00:39:05;;;;;;;9.20;5.82;;;;;;;;;;5024831;28;25128;-71
2023/08/27 00:41:32;;;;;;;7.97;6.47;;;;;;;;;;5021845;28;25068;-71
2023/08/27 00:43:58;;;;;;;7.00;5.57;;;;;;;;;;5034917;28;25100;-71
2023/08/27 00:46:24;;;;;;;7.53;6.18;;;;;;;;;;5047270;28;25113;-73
2023/08/27 00:48:50;;;;;;;8.65;6.25;;;;;;;;;;5036873;28;25064;-71
2023/08/27 00:51:16;;;;;;;12.25;6.22;;;;;;;;;;5034525;28;25077;-71
2023/08/27 00:53:42;;;;;;;8.23;5.97;;;;;;;;;;5034093;28;25070;-71
2023/08/27 00:56:08;;;;;;;9.65;6.18;;;;;;;;;;5042516;28;25079;-70
2023/08/27 00:58:35;;;;;;;9.20;6.45;;;;;;;;;;5027943;28;25060;-72
2023/08/27 01:01:00;;;;;;;7.45;5.65;;;;;;;;;;5034351;28;25057;-73
2023/08/27 01:03:27;;;;;;;8.05;5.78;;;;;;;;;;5022973;28;25074;-71
2023/08/27 01:05:53;;;;;;;6.57;5.40;;;;;;;;;;5032297;28;25127;-72
2023/08/27 01:08:26;;;;;;;8.60;5.32;;;;;;;;;;5024659;28;25096;-71
2023/08/27 01:11:01;;;;;;;7.43;6.10;;;;;;;;;;5024871;28;25090;-71
2023/08/27 01:13:47;;;;;;;7.85;6.20;;;;;;;;;;5017242;28;25129;-71
2023/08/27 01:16:14;;;;;;;6.00;4.60;;;;;;;;;;5018862;28;25155;-71
2023/08/27 01:18:41;;;;;;;7.75;6.05;;;;;;;;;;5021425;28;25089;-71
2023/08/27 01:21:19;;;;;;;12.25;6.05;;;;;;;;;;5023695;28;25077;-71
2023/08/27 01:23:45;;;;;;;10.65;6.53;;;;;;;;;;5031452;28;25069;-71
2023/08/27 01:26:13;;;;;;;8.38;5.68;;;;;;;;;;5029284;28;25132;-72
2023/08/27 01:28:44;;;;;;;7.47;5.03;;;;;;;;;;5023412;28;25135;-71
2023/08/27 01:31:12;;;;;;;10.20;6.45;;;;;;;;;;5025869;28;25065;-71
2023/08/27 01:33:39;;;;;;;7.05;5.55;;;;;;;;;;5016629;28;25069;-71
2023/08/27 01:36:05;;;;;;;7.95;5.15;;;;;;;;;;5028244;28;25058;-73
2023/08/27 01:38:31;;;;;;;7.95;6.28;;;;;;;;;;5019484;28;25073;-71
2023/08/27 01:40:57;;;;;;;9.27;5.72;;;;;;;;;;5025983;28;25075;-72
2023/08/27 01:43:23;;;;;;;6.93;6.03;;;;;;;;;;5023795;28;25116;-72
2023/08/27 01:45:49;;;;;;;8.20;6.20;;;;;;;;;;5029951;28;25072;-71
2023/08/27 01:48:15;;;;;;;9.73;5.93;;;;;;;;;;5025766;28;25076;-71
2023/08/27 01:50:41;;;;;;;8.05;5.30;;;;;;;;;;5036450;28;25108;-70
2023/08/27 01:53:07;;;;;;;10.60;6.20;;;;;;;;;;5029598;28;25058;-71
2023/08/27 01:55:34;;;;;;;10.75;6.70;;;;;;;;;;5047267;28;25081;-72
2023/08/27 01:58:00;;;;;;;7.80;5.80;;;;;;;;;;5055056;28;25130;-71
2023/08/27 02:00:26;;;;;;;11.48;6.00;;;;;;;;;;5051152;28;25090;-72
2023/08/27 02:02:52;;;;;;;9.50;6.20;;;;;;;;;;5037082;28;25050;-70
2023/08/27 02:05:18;;;;;;;7.70;5.40;;;;;;;;;;5021118;28;25091;-71
2023/08/27 02:07:44;;;;;;;7.60;5.45;;;;;;;;;;5020871;28;25129;-73
2023/08/27 02:10:10;;;;;;;9.43;6.00;;;;;;;;;;5028014;28;25071;-71
2023/08/27 02:12:36;;;;;;;13.40;6.45;;;;;;;;;;5026727;28;25075;-71
2023/08/27 02:15:03;;;;;;;9.57;5.65;;;;;;;;;;5024944;28;25068;-71
2023/08/27 02:17:29;;;;;;;6.75;5.53;;;;;;;;;;5033575;28;25067;-71
2023/08/27 02:19:55;;;;;;;8.45;5.88;;;;;;;;;;5023813;28;25055;-72
2023/08/27 02:22:21;;;;;;;8.27;5.70;;;;;;;;;;5031987;28;25106;-71
2023/08/27 02:24:47;;;;;;;9.90;5.28;;;;;;;;;;5026591;28;25075;-70
2023/08/27 02:27:13;;;;;;;11.35;5.68;;;;;;;;;;5026450;28;25075;-71
2023/08/27 02:29:39;;;;;;;8.13;5.38;;;;;;;;;;5024838;28;25053;-71
2023/08/27 02:32:06;;;;;;;10.52;5.05;;;;;;;;;;5024954;28;25062;-75
2023/08/27 02:34:32;;;;;;;9.00;5.72;;;;;;;;;;5015550;28;25083;-70
2023/08/27 02:36:58;;;;;;;9.48;5.25;;;;;;;;;;5013417;28;25140;-71
2023/08/27 02:39:24;;;;;;;9.55;5.82;;;;;;;;;;5024735;28;25105;-71
2023/08/27 02:41:50;;;;;;;10.93;6.28;;;;;;;;;;5033578;28;25111;-72
2023/08/27 02:44:16;;;;;;;10.18;5.80;;;;;;;;;;5020344;28;25126;-71
2023/08/27 02:46:42;;;;;;;10.68;6.38;;;;;;;;;;5027169;28;25073;-73
2023/08/27 02:49:08;;;;;;;9.00;5.90;;;;;;;;;;5024976;28;25138;-72
2023/08/27 02:51:34;;;;;;;12.43;5.65;;;;;;;;;;5022951;28;25112;-72
2023/08/27 02:54:00;;;;;;;11.55;6.40;;;;;;;;;;5020295;28;25094;-71
2023/08/27 02:56:26;;;;;;;10.45;6.40;;;;;;;;;;5021322;28;25125;-71
2023/08/27 02:58:52;;;;;;;12.63;5.85;;;;;;;;;;5019958;28;25082;-71
2023/08/27 03:01:21;;;;;;;8.32;5.88;;;;;;;;;;5012750;28;25098;-71
2023/08/27 03:03:48;;;;;;;9.38;5.90;;;;;;;;;;5019057;28;25070;-71
2023/08/27 03:06:14;;;;;;;9.00;5.90;;;;;;;;;;5019263;28;25078;-71
2023/08/27 03:08:40;;;;;;;10.98;6.30;;;;;;;;;;5013941;28;25064;-71
2023/08/27 03:11:07;;;;;;;10.60;7.22;;;;;;;;;;5015646;28;25108;-71
2023/08/27 03:13:33;;;;;;;12.57;6.40;;;;;;;;;;5024089;28;25052;-71
2023/08/27 03:15:59;;;;;;;10.88;6.28;;;;;;;;;;5019599;28;25056;-70
2023/08/27 03:18:25;;;;;;;14.82;6.75;;;;;;;;;;5022380;28;25059;-70
2023/08/27 03:20:51;;;;;;;12.70;5.60;;;;;;;;;;5017090;28;25096;-72
2023/08/27 03:23:18;;;;;;;9.95;6.25;;;;;;;;;;5024720;28;25088;-71
2023/08/27 03:25:44;;;;;;;9.07;6.20;;;;;;;;;;5015897;28;25055;-71
2023/08/27 03:28:10;;;;;;;11.50;6.18;;;;;;;;;;5023755;28;25136;-71
2023/08/27 03:30:36;;;;;;;11.18;5.60;;;;;;;;;;5036347;28;25077;-71
2023/08/27 03:33:02;;;;;;;17.58;5.13;;;;;;;;;;5031964;28;25164;-71
2023/08/27 03:35:28;;;;;;;13.93;4.72;;;;;;;;;;5023133;28;25066;-72
2023/08/27 03:37:54;;;;;;;13.18;4.93;;;;;;;;;;5022728;28;25085;-71
2023/08/27 03:40:20;;;;;;;10.27;4.88;;;;;;;;;;5036950;28;25060;-71
2023/08/27 03:42:46;;;;;;;13.30;5.50;;;;;;;;;;5027150;28;25126;-69
2023/08/27 03:45:12;;;;;;;6.57;4.68;;;;;;;;;;5027903;28;25077;-71
2023/08/27 03:47:38;;;;;;;11.75;5.05;;;;;;;;;;5028225;28;25106;-71
2023/08/27 03:50:05;;;;;;;8.45;5.50;;;;;;;;;;5032150;28;25096;-72
2023/08/27 03:52:31;;;;;;;7.32;4.63;;;;;;;;;;5030525;28;25139;-71
2023/08/27 03:54:57;;;;;;;7.70;4.70;;;;;;;;;;5046969;28;25088;-72
2023/08/27 03:57:23;;;;;;;9.30;4.85;;;;;;;;;;5028115;28;25059;-71
2023/08/27 03:59:51;;;;;;;6.18;5.47;;;;;;;;;;5029776;28;25056;-73
2023/08/27 04:02:17;;;;;;;9.88;5.90;;;;;;;;;;5023576;28;25104;-71
2023/08/27 04:04:43;;;;;;;10.45;5.72;;;;;;;;;;5028272;28;25106;-71
2023/08/27 04:07:09;;;;;;;10.23;6.35;;;;;;;;;;5028360;28;25122;-73
2023/08/27 04:09:35;;;;;;;16.10;6.25;;;;;;;;;;5029981;28;25059;-70
2023/08/27 04:12:01;;;;;;;10.30;5.32;;;;;;;;;;5029608;28;25122;-72
2023/08/27 04:14:30;;;;;;;11.18;6.00;;;;;;;;;;5040997;28;25112;-71
2023/08/27 04:16:56;;;;;;;8.48;6.10;;;;;;;;;;5022871;28;25069;-72
2023/08/27 04:19:23;;;;;;;8.40;5.47;;;;;;;;;;5047390;28;25079;-73
2023/08/27 04:21:49;;;;;;;15.30;6.35;;;;;;;;;;5028879;28;25069;-72
2023/08/27 04:24:15;;;;;;;8.65;6.25;;;;;;;;;;5034774;28;25082;-73
2023/08/27 04:26:40;;;;;;;20.65;6.50;;;;;;;;;;5041274;28;25135;-72
2023/08/27 04:29:06;;;;;;;10.75;6.35;;;;;;;;;;5027474;28;25169;-71
2023/08/27 04:31:32;;;;;;;13.95;6.07;;;;;;;;;;5039780;28;25082;-71
2023/08/27 04:33:58;;;;;;;9.40;6.93;;;;;;;;;;5032346;28;25068;-71
2023/08/27 04:36:25;;;;;;;13.45;6.95;;;;;;;;;;5048227;28;25067;-72
2023/08/27 04:38:51;;;;;;;15.43;6.32;;;;;;;;;;5039507;28;25171;-72
2023/08/27 04:41:17;;;;;;;11.07;7.25;;;;;;;;;;5031009;28;25079;-71
2023/08/27 04:43:43;;;;;;;12.43;6.57;;;;;;;;;;5019053;28;25082;-72
2023/08/27 04:46:09;;;;;;;9.32;6.15;;;;;;;;;;5038503;28;25086;-73
2023/08/27 04:48:35;;;;;;;12.40;6.38;;;;;;;;;;5036837;28;25135;-72
2023/08/27 04:51:01;;;;;;;20.27;7.28;;;;;;;;;;5040303;28;25073;-72
2023/08/27 04:53:27;;;;;;;10.65;6.75;;;;;;;;;;5043866;28;25143;-72
2023/08/27 04:55:53;;;;;;;12.48;6.20;;;;;;;;;;5026733;28;25081;-72
2023/08/27 04:58:19;;;;;;;14.25;5.68;;;;;;;;;;5030010;28;25049;-72
2023/08/27 05:00:45;;;;;;;14.05;6.75;;;;;;;;;;5029782;28;25094;-73
2023/08/27 05:03:11;;;;;;;11.63;6.68;;;;;;;;;;5046627;28;25086;-75
2023/08/27 05:05:38;;;;;;;15.68;7.45;;;;;;;;;;5055221;28;25079;-76
2023/08/27 05:08:04;;;;;;;13.63;7.20;;;;;;;;;;5049054;28;25090;-74
2023/08/27 05:10:30;;;;;;;11.65;6.57;;;;;;;;;;5046939;28;25084;-72
2023/08/27 05:12:56;;;;;;;11.32;6.57;;;;;;;;;;5037340;28;25109;-72
2023/08/27 05:15:22;;;;;;;7.75;5.75;;;;;;;;;;5024977;28;25053;-71
2023/08/27 05:17:48;;;;;;;10.35;7.00;;;;;;;;;;5033637;28;25055;-75
2023/08/27 05:20:15;;;;;;;10.00;5.95;;;;;;;;;;5051386;28;25077;-74
2023/08/27 05:22:41;;;;;;;8.38;6.28;;;;;;;;;;5037865;28;25089;-72
2023/08/27 05:25:07;;;;;;;13.93;6.57;;;;;;;;;;5027162;28;25078;-72
2023/08/27 05:27:33;;;;;;;7.45;5.65;;;;;;;;;;5027198;28;25053;-70
2023/08/27 05:29:59;;;;;;;12.63;6.88;;;;;;;;;;5032193;28;25071;-71
2023/08/27 05:32:31;;;;;;;12.45;7.88;;;;;;;;;;5030063;28;25082;-71
2023/08/27 05:35:03;;;;;;;9.00;5.88;;;;;;;;;;5029224;28;25070;-75
2023/08/27 05:37:29;;;;;;;14.15;6.85;;;;;;;;;;5031565;28;25155;-73
2023/08/27 05:39:55;;;;;;;16.67;7.10;;;;;;;;;;5029770;28;25061;-73
2023/08/27 05:42:22;;;;;;;8.30;6.50;;;;;;;;;;5026857;28;25104;-72
2023/08/27 05:44:48;;;;;;;14.13;7.13;;;;;;;;;;5025250;28;25131;-73
2023/08/27 05:47:17;;;;;;;11.43;6.28;;;;;;;;;;5028094;28;25071;-75
2023/08/27 05:49:43;;;;;;;14.48;6.55;;;;;;;;;;5024807;28;25052;-74
2023/08/27 05:52:09;;;;;;;12.70;7.00;;;;;;;;;;5023063;28;25066;-73
2023/08/27 05:54:35;;;;;;;14.70;7.50;;;;;;;;;;5020744;28;25132;-72
2023/08/27 05:57:04;;;;;;;12.32;6.30;;;;;;;;;;5026882;28;25071;-74
2023/08/27 05:59:30;;;;;;;10.85;6.32;;;;;;;;;;5027647;28;25097;-75
2023/08/27 06:01:58;;;;;;;11.30;6.70;;;;;;;;;;5027478;28;25063;-72
2023/08/27 06:04:24;;;;;;;9.07;6.40;;;;;;;;;;5023040;28;25129;-72
2023/08/27 06:06:50;;;;;;;13.75;6.88;;;;;;;;;;5042319;28;25051;-74
2023/08/27 06:09:19;;;;;;;11.77;6.70;;;;;;;;;;5043600;28;25069;-73
2023/08/27 06:11:45;;;;;;;9.70;6.75;;;;;;;;;;5047937;28;25061;-75
2023/08/27 06:14:12;;;;;;;10.82;6.72;;;;;;;;;;5053940;28;25053;-72
2023/08/27 06:16:38;;;;;;;13.18;7.22;;;;;;;;;;5020505;28;25127;-73
2023/08/27 06:19:05;;;;;;;15.73;7.63;;;;;;;;;;5022738;28;25045;-75
2023/08/27 06:21:31;;;;;;;13.90;7.22;;;;;;;;;;5028611;28;25063;-73
2023/08/27 06:23:57;;;;;;;14.38;7.75;;;;;;;;;;5028628;28;25063;-74
2023/08/27 06:26:23;;;;;;;12.43;7.40;;;;;;;;;;5024858;28;25067;-74
2023/08/27 06:28:49;;;;;;;11.85;7.72;;;;;;;;;;5023692;28;25079;-73
2023/08/27 06:31:15;;;;;;;16.40;8.23;;;;;;;;;;5024657;28;25104;-74
2023/08/27 06:33:41;;;;;;;15.32;7.97;;;;;;;;;;5021922;28;25102;-73
2023/08/27 06:36:07;;;;;;;12.02;8.23;;;;;;;;;;5019515;28;25120;-73
2023/08/27 06:38:33;;;;;;;10.85;8.05;;;;;;;;;;5021518;28;25058;-74
2023/08/27 06:41:00;;;;;;;18.13;7.55;;;;;;;;;;5024126;28;25059;-74
2023/08/27 06:43:26;;;;;;;9.32;7.78;;;;;;;;;;5021785;28;25063;-74
2023/08/27 06:45:52;;;;;;;11.00;7.88;;;;;;;;;;5015885;28;25050;-72
2023/08/27 06:48:18;;;;;;;13.98;8.30;;;;;;;;;;5029740;28;25057;-75
2023/08/27 06:50:44;;;;;;;15.63;8.07;;;;;;;;;;5036857;28;25090;-72
2023/08/27 06:53:11;;;;;;;9.50;6.82;;;;;;;;;;5018738;28;25076;-74
2023/08/27 06:55:37;;;;;;;8.60;6.43;;;;;;;;;;5017044;28;25089;-73
2023/08/27 06:58:03;;;;;;;12.63;6.63;;;;;;;;;;5020924;28;25069;-73
2023/08/27 07:00:29;;;;;;;16.15;7.53;;;;;;;;;;5027812;28;25060;-75
2023/08/27 07:02:55;;;;;;;14.02;6.57;;;;;;;;;;5022442;28;25062;-72
2023/08/27 07:05:21;;;;;;;14.27;8.38;;;;;;;;;;5030086;28;25060;-72
2023/08/27 07:07:47;;;;;;;12.18;8.35;;;;;;;;;;5019094;28;25116;-75
2023/08/27 07:10:13;;;;;;;15.30;8.10;;;;;;;;;;5029245;28;25102;-72
2023/08/27 07:12:39;;;;;;;13.57;8.20;;;;;;;;;;5031814;28;25076;-72
2023/08/27 07:15:05;;;;;;;16.20;8.45;;;;;;;;;;5026708;28;25057;-76
2023/08/27 07:17:35;;;;;;;11.90;8.00;;;;;;;;;;5021668;28;25068;-72
2023/08/27 07:20:01;;;;;;;13.75;8.88;;;;;;;;;;5027938;28;25115;-72
2023/08/27 07:22:27;;;;;;;14.07;9.00;;;;;;;;;;5020612;28;25072;-71
2023/08/27 07:24:54;;;;;;;12.55;8.23;;;;;;;;;;5033148;28;25125;-71
2023/08/27 07:27:20;;;;;;;14.80;9.02;;;;;;;;;;5025119;28;25096;-74
2023/08/27 07:29:46;;;;;;;15.93;9.30;;;;;;;;;;5021201;28;25090;-73
2023/08/27 07:32:12;;;;;;;14.95;8.82;;;;;;;;;;5020460;28;25084;-73
2023/08/27 07:34:38;;;;;;;12.70;7.45;;;;;;;;;;5026550;28;25063;-73
2023/08/27 07:37:04;;;;;;;10.93;7.55;;;;;;;;;;5027899;28;25083;-74
2023/08/27 07:39:30;;;;;;;10.10;7.75;;;;;;;;;;5025788;28;25151;-73
2023/08/27 07:41:56;;;;;;;9.05;7.13;;;;;;;;;;5024725;28;25058;-73
2023/08/27 07:44:22;;;;;;;9.45;7.22;;;;;;;;;;5031600;28;25103;-74
2023/08/27 07:46:48;;;;;;;10.05;7.63;;;;;;;;;;5028420;28;25075;-72
2023/08/27 07:49:14;;;;;;;12.18;7.40;;;;;;;;;;5031718;28;25051;-74
2023/08/27 07:51:40;;;;;;;14.00;7.88;;;;;;;;;;5037903;28;25118;-73
2023/08/27 07:54:06;;;;;;;9.48;7.05;;;;;;;;;;5044482;28;25086;-75
2023/08/27 07:56:32;;;;;;;12.68;8.70;;;;;;;;;;5042961;28;25091;-76
2023/08/27 07:58:58;;;;;;;10.60;8.10;;;;;;;;;;5033874;28;25056;-75
2023/08/27 08:01:25;;;;;;;13.15;8.40;;;;;;;;;;5037467;28;25139;-75
2023/08/27 08:03:51;;;;;;;16.63;9.40;;;;;;;;;;5032323;28;25166;-74
2023/08/27 08:06:17;;;;;;;18.65;9.38;;;;;;;;;;5023498;28;25076;-71
2023/08/27 08:08:43;;;;;;;8.55;5.07;;;;;;;;;;5022307;28;25177;-74
2023/08/27 08:11:09;;;;;;;8.02;2.83;;;;;;;;;;5026506;28;25091;-74
2023/08/27 08:13:36;;;;;;;8.45;4.07;;;;;;;;;;5036662;28;25144;-73
2023/08/27 08:16:02;;;;;;;9.90;5.10;;;;;;;;;;5025306;28;25075;-72
2023/08/27 08:18:30;;;;;;;15.15;6.20;;;;;;;;;;5035547;28;25059;-72
2023/08/27 08:20:58;;;;;;;9.85;5.18;;;;;;;;;;5032898;28;25139;-74
2023/08/27 08:23:25;;;;;;;10.88;4.70;;;;;;;;;;5017596;28;25059;-75
2023/08/27 08:25:51;;;;;;;12.27;3.65;;;;;;;;;;5032233;28;25085;-74
2023/08/27 08:28:17;;;;;;;4.97;2.80;;;;;;;;;;5033169;28;25094;-72
2023/08/27 08:30:48;;;;;;;4.60;3.10;;;;;;;;;;5033578;28;25056;-72
2023/08/27 08:33:14;;;;;;;11.48;4.00;;;;;;;;;;5030909;28;25089;-73
2023/08/27 08:35:40;;;;;;;11.63;4.28;;;;;;;;;;5033176;28;25071;-70
2023/08/27 08:38:06;;;;;;;6.90;3.78;;;;;;;;;;5034584;28;25064;-72
2023/08/27 08:40:35;;;;;;;5.22;3.13;;;;;;;;;;5022979;28;25052;-71
2023/08/27 08:43:01;;;;;;;3.70;2.03;;;;;;;;;;5032313;28;25087;-72
2023/08/27 08:45:32;;;;;;;1.92;1.20;;;;;;;;;;5029459;28;25077;-72
2023/08/27 08:48:01;;;;;;;1.30;1.20;;;;;;;;;;5028531;28;25220;-70
2023/08/27 08:50:32;;;;;;;0.98;0.80;;;;;;;;;;5025090;28;25072;-69
2023/08/27 08:53:00;;;;;;;3.55;1.17;;;;;;;;;;5021108;28;25056;-68
2023/08/27 08:55:26;;;;;;;1.60;0.98;;;;;;;;;;5024266;28;25136;-69
2023/08/27 08:57:53;;;;;;;3.47;1.27;;;;;;;;;;5034614;28;25117;-69
2023/08/27 09:00:20;;;;;;;7.90;1.40;;;;;;;;;;5031905;28;25066;-70
2023/08/27 09:02:46;;;;;;;1.40;1.30;;;;;;;;;;5026429;28;25080;-71
2023/08/27 09:05:13;;;;;;;4.53;1.60;;;;;;;;;;5029137;28;25078;-69
2023/08/27 09:07:41;;;;;;;1.88;1.30;;;;;;;;;;5018127;28;25143;-70
2023/08/27 09:10:08;;;;;;;2.28;1.20;;;;;;;;;;5030735;28;25065;-72
2023/08/27 09:12:39;;;;;;;3.10;1.15;;;;;;;;;;5028217;28;25088;-71
2023/08/27 09:15:05;;;;;;;1.67;0.95;;;;;;;;;;5025839;28;25152;-71
2023/08/27 09:17:31;;;;;;;1.42;1.15;;;;;;;;;;5040137;28;25070;-71
2023/08/27 09:19:57;;;;;;;2.03;1.13;;;;;;;;;;5049207;28;25075;-69
2023/08/27 09:22:23;;;;;;;5.72;1.52;;;;;;;;;;5037774;28;25104;-69
2023/08/27 09:24:49;;;;;;;2.53;1.10;;;;;;;;;;5044876;28;25069;-70
2023/08/27 09:27:15;;;;;;;3.10;1.20;;;;;;;;;;5026012;28;25052;-70
2023/08/27 09:29:42;;;;;;;1.30;1.20;;;;;;;;;;5015906;28;25093;-70
2023/08/27 09:32:08;;;;;;;1.77;1.48;;;;;;;;;;5019063;28;25065;-70
2023/08/27 09:34:40;;;;;;;4.57;1.08;;;;;;;;;;5021866;28;25105;-70
2023/08/27 09:37:09;;;;;;;5.18;1.48;;;;;;;;;;5022596;28;25119;-71
2023/08/27 09:39:35;;;;;;;3.60;1.50;;;;;;;;;;5027593;28;25066;-70
2023/08/27 09:42:01;;;;;;;5.60;1.85;;;;;;;;;;5020343;28;25094;-68
2023/08/27 09:44:27;;;;;;;9.95;1.92;;;;;;;;;;5021789;28;25074;-68
2023/08/27 09:46:53;;;;;;;7.88;2.20;;;;;;;;;;5024885;28;25126;-70
2023/08/27 09:49:23;;;;;;;22.05;5.90;;;;;;;;;;5023829;28;25056;-70
2023/08/27 09:51:55;;;;;;;12.32;3.22;;;;;;;;;;5025559;28;25045;-69
2023/08/27 09:54:21;;;;;;;8.77;2.42;;;;;;;;;;5022007;28;25082;-70
2023/08/27 09:56:49;;;;;;;4.32;2.38;;;;;;;;;;5023090;28;25129;-70
2023/08/27 09:59:19;;;;;;;2.33;2.05;;;;;;;;;;5018667;28;25071;-69
2023/08/27 10:01:51;;;;;;;2.85;1.88;;;;;;;;;;5022457;28;25151;-69
2023/08/27 10:04:18;;;;;;;4.00;2.00;;;;;;;;;;5022439;28;25069;-71
2023/08/27 10:06:44;;;;;;;2.40;1.85;;;;;;;;;;5021866;28;25113;-71
2023/08/27 10:09:10;;;;;;;1.88;1.77;;;;;;;;;;5015321;28;25070;-69
2023/08/27 10:11:37;;;;;;;5.13;2.20;;;;;;;;;;5022582;28;25141;-70
2023/08/27 10:14:03;;;;;;;2.50;1.50;;;;;;;;;;5011944;28;25082;-71
2023/08/27 10:16:30;;;;;;;6.63;3.60;;;;;;;;;;5021061;28;25115;-70
2023/08/27 10:18:56;;;;;;;3.25;2.53;;;;;;;;;;5028714;28;25109;-70
2023/08/27 10:21:23;;;;;;;3.30;1.45;;;;;;;;;;5026188;28;25053;-71
2023/08/27 10:23:49;;;;;;;3.38;1.63;;;;;;;;;;5038506;28;25073;-71
2023/08/27 10:26:16;;;;;;;2.05;1.73;;;;;;;;;;5039334;28;25088;-70
2023/08/27 10:28:42;;;;;;;2.28;1.33;;;;;;;;;;5034147;28;25135;-70
2023/08/27 10:31:08;;;;;;;3.70;1.73;;;;;;;;;;5021453;28;25075;-73
2023/08/27 10:33:34;;;;;;;2.35;1.48;;;;;;;;;;5025821;28;25060;-68
2023/08/27 10:36:02;;;;;;;2.03;1.35;;;;;;;;;;5019247;28;25052;-70
2023/08/27 10:38:28;;;;;;;2.28;1.55;;;;;;;;;;5020369;28;25075;-69
2023/08/27 10:40:55;;;;;;;1.58;1.20;;;;;;;;;;5025369;28;25132;-69
2023/08/27 10:43:22;;;;;;;1.95;1.27;;;;;;;;;;5017451;28;25066;-71
2023/08/27 10:45:48;;;;;;;3.13;1.20;;;;;;;;;;5020859;28;25063;-70
2023/08/27 10:48:25;;;;;;;2.30;1.45;;;;;;;;;;5012987;28;25060;-69
2023/08/27 10:51:07;;;;;;;1.80;1.00;;;;;;;;;;5026545;28;25059;-70
2023/08/27 10:53:59;;;;;;;0.80;0.80;;;;;;;;;;5030120;28;25140;-70
2023/08/27 10:56:27;;;;;;;1.77;0.88;;;;;;;;;;5015861;28;25154;-70
2023/08/27 10:58:53;;;;;;;4.90;0.93;;;;;;;;;;5024913;28;25104;-69
2023/08/27 11:01:19;;;;;;;1.48;0.80;;;;;;;;;;5020851;28;25077;-70
2023/08/27 11:03:58;;;;;;;2.78;0.80;;;;;;;;;;5022406;28;25096;-72
2023/08/27 11:06:37;;;;;;;1.90;0.82;;;;;;;;;;5024614;28;25122;-70
2023/08/27 11:09:14;;;;;;;2.08;1.02;;;;;;;;;;5025064;28;25131;-70
2023/08/27 11:11:43;;;;;;;4.57;0.73;;;;;;;;;;5024487;28;25067;-72
2023/08/27 11:14:09;;;;;;;2.88;1.10;;;;;;;;;;5013270;28;25075;-70
2023/08/27 11:16:45;;;;;;;3.28;1.05;;;;;;;;;;5020676;28;25112;-71
2023/08/27 11:19:12;;;;;;;3.78;1.10;;;;;;;;;;5022441;28;25060;-70
2023/08/27 11:21:38;;;;;;;1.63;0.77;;;;;;;;;;5027356;28;25154;-69
2023/08/27 11:24:17;;;;;;;3.50;1.25;;;;;;;;;;5020943;28;25061;-68
2023/08/27 11:26:44;;;;;;;3.33;1.48;;;;;;;;;;5032403;28;25149;-71
2023/08/27 11:29:11;;;;;;;3.53;1.67;;;;;;;;;;5020970;28;25160;-71
2023/08/27 11:31:40;;;;;;;3.03;1.40;;;;;;;;;;5024945;28;25135;-69
2023/08/27 11:34:07;;;;;;;3.17;1.10;;;;;;;;;;5014032;28;25075;-69
2023/08/27 11:36:33;;;;;;;6.43;1.10;;;;;;;;;;5021227;28;25056;-69
2023/08/27 11:38:59;;;;;;;2.38;1.23;;;;;;;;;;5024917;28;25141;-71
2023/08/27 11:41:25;;;;;;;3.72;1.05;;;;;;;;;;5031330;28;25079;-70
2023/08/27 11:43:53;;;;;;;2.88;1.40;;;;;;;;;;5030498;28;25083;-71
2023/08/27 11:46:24;;;;;;;3.38;1.50;;;;;;;;;;5034860;28;25141;-71
2023/08/27 11:48:50;;;;;;;2.60;1.40;;;;;;;;;;5018344;28;25098;-70
2023/08/27 11:51:17;;;;;;;2.47;1.17;;;;;;;;;;5023965;28;25118;-70
2023/08/27 11:53:44;;;;;;;2.65;1.10;;;;;;;;;;5015774;28;25064;-69
2023/08/27 11:56:10;;;;;;;1.98;1.35;;;;;;;;;;5031783;28;25070;-70
2023/08/27 11:58:36;;;;;;;5.10;1.25;;;;;;;;;;5015027;28;25085;-71
2023/08/27 12:01:02;;;;;;;4.45;1.38;;;;;;;;;;5029537;28;25136;-69
2023/08/27 12:03:28;;;;;;;1.30;1.20;;;;;;;;;;5018002;28;25086;-69
2023/08/27 12:05:55;;;;;;;3.15;0.90;;;;;;;;;;5030580;28;25098;-69
2023/08/27 12:08:21;;;;;;;7.00;1.50;;;;;;;;;;5034394;28;25150;-70
2023/08/27 12:10:48;;;;;;;3.15;1.10;;;;;;;;;;5041041;28;25104;-70
2023/08/27 12:13:14;;;;;;;3.85;1.10;;;;;;;;;;5020486;28;25384;-70
2023/08/27 12:15:40;;;;;;;1.80;1.10;;;;;;;;;;5031063;28;25144;-71
2023/08/27 12:18:09;;;;;;;4.00;1.63;;;;;;;;;;5026628;28;25069;-70
2023/08/27 12:20:36;;;;;;;3.20;1.50;;;;;;;;;;5027507;28;25074;-70
2023/08/27 12:23:14;;;;;;;4.20;1.60;;;;;;;;;;5024209;28;25054;-70
2023/08/27 12:25:50;;;;;;;1.58;1.45;;;;;;;;;;5027358;28;25167;-71
2023/08/27 12:28:17;;;;;;;5.25;1.73;;;;;;;;;;5020611;28;25136;-69
2023/08/27 12:30:47;;;;;;;2.58;1.65;;;;;;;;;;5015488;28;25130;-70
2023/08/27 12:33:13;;;;;;;2.50;1.70;;;;;;;;;;5020267;28;25118;-69
2023/08/27 12:35:39;;;;;;;2.08;1.05;;;;;;;;;;5033677;28;25068;-70
2023/08/27 12:38:05;;;;;;;1.77;1.33;;;;;;;;;;5017903;28;25102;-69
2023/08/27 12:40:31;;;;;;;5.78;1.42;;;;;;;;;;5020965;28;25115;-70
2023/08/27 12:42:58;;;;;;;2.20;0.82;;;;;;;;;;5017132;28;25145;-69
2023/08/27 12:45:24;;;;;;;2.35;0.50;;;;;;;;;;5021331;28;25072;-69
2023/08/27 12:47:50;;;;;;;0.70;0.70;;;;;;;;;;5022420;28;25157;-71
2023/08/27 12:50:16;;;;;;;1.10;0.52;;;;;;;;;;5012990;28;25061;-70
2023/08/27 12:52:42;;;;;;;3.13;0.80;;;;;;;;;;5017536;28;25051;-71
2023/08/27 12:55:08;;;;;;;4.28;0.85;;;;;;;;;;5016980;28;25062;-70
2023/08/27 12:57:34;;;;;;;0.63;0.63;;;;;;;;;;5023175;28;25057;-69
2023/08/27 13:00:00;;;;;;;1.27;0.70;;;;;;;;;;5016229;28;25090;-70
2023/08/27 13:02:26;;;;;;;2.17;1.50;;;;;;;;;;5019700;28;25088;-70
2023/08/27 13:04:52;;;;;;;1.33;1.13;;;;;;;;;;5013475;28;25068;-69
2023/08/27 13:07:19;;;;;;;2.65;1.23;;;;;;;;;;5014614;28;25076;-70
2023/08/27 13:09:45;;;;;;;3.17;1.35;;;;;;;;;;5014430;28;25057;-70
2023/08/27 13:12:11;;;;;;;5.38;1.30;;;;;;;;;;5019362;28;25157;-69
2023/08/27 13:14:37;;;;;;;3.67;1.10;;;;;;;;;;5020776;28;25136;-70
2023/08/27 13:17:03;;;;;;;1.45;0.98;;;;;;;;;;5010248;28;25075;-69
2023/08/27 13:19:29;;;;;;;1.48;1.17;;;;;;;;;;5018010;28;25151;-69
2023/08/27 13:21:55;;;;;;;4.15;2.05;;;;;;;;;;5019297;28;25081;-70
2023/08/27 13:24:21;;;;;;;2.72;1.40;;;;;;;;;;5028249;28;25077;-70
2023/08/27 13:26:47;;;;;;;1.70;0.85;;;;;;;;;;5032134;28;25072;-70
2023/08/27 13:29:13;;;;;;;1.45;0.77;;;;;;;;;;5023571;28;25062;-70
2023/08/27 13:31:39;;;;;;;1.15;0.73;;;;;;;;;;5030117;28;25060;-70
2023/08/27 13:34:05;;;;;;;0.93;0.88;;;;;;;;;;5032010;28;25063;-70
2023/08/27 13:36:31;;;;;;;0.55;0.55;;;;;;;;;;5033928;28;25128;-71
2023/08/27 13:38:58;;;;;;;1.25;0.73;;;;;;;;;;5034005;28;25105;-74
2023/08/27 13:41:24;;;;;;;1.38;1.05;;;;;;;;;;5022708;28;25087;-70
2023/08/27 13:43:50;;;;;;;0.93;0.60;;;;;;;;;;5008253;28;25080;-69
2023/08/27 13:46:17;;;;;;;3.70;1.05;;;;;;;;;;5017167;28;25064;-69
2023/08/27 13:48:42;;;;;;;1.75;1.02;;;;;;;;;;5020388;28;25049;-71
2023/08/27 13:51:09;;;;;;;4.10;1.17;;;;;;;;;;5021911;28;25055;-71
2023/08/27 13:53:35;;;;;;;4.45;1.10;;;;;;;;;;5009931;28;25097;-70
2023/08/27 13:56:01;;;;;;;2.10;1.73;;;;;;;;;;5010879;28;25151;-68
2023/08/27 13:58:28;;;;;;;2.33;1.20;;;;;;;;;;5016723;28;25158;-70
2023/08/27 14:00:54;;;;;;;3.33;1.60;;;;;;;;;;5008308;28;25099;-71
2023/08/27 14:03:20;;;;;;;3.95;1.48;;;;;;;;;;5025695;28;25077;-71
2023/08/27 14:05:46;;;;;;;2.92;1.60;;;;;;;;;;5013472;28;25079;-70
2023/08/27 14:08:12;;;;;;;1.90;1.58;;;;;;;;;;5014745;28;25058;-70
2023/08/27 14:10:38;;;;;;;3.17;1.50;;;;;;;;;;5014531;28;25099;-70
2023/08/27 14:13:05;;;;;;;5.18;2.15;;;;;;;;;;5023780;28;25080;-70
2023/08/27 14:15:31;;;;;;;7.50;2.20;;;;;;;;;;5023885;28;25056;-69
2023/08/27 14:17:57;;;;;;;2.80;1.77;;;;;;;;;;5022560;28;25151;-69
2023/08/27 14:20:24;;;;;;;1.77;1.40;;;;;;;;;;5021657;28;25105;-72
2023/08/27 14:22:50;;;;;;;2.17;1.85;;;;;;;;;;5012592;28;25117;-70
2023/08/27 14:25:16;;;;;;;4.53;1.70;;;;;;;;;;5017424;28;25090;-71
2023/08/27 14:27:42;;;;;;;4.10;1.77;;;;;;;;;;5013147;28;25063;-70
2023/08/27 14:30:08;;;;;;;3.72;1.95;;;;;;;;;;5013914;28;25132;-71
2023/08/27 14:32:34;;;;;;;2.08;1.70;;;;;;;;;;5023613;28;25125;-70
2023/08/27 14:35:00;;;;;;;4.85;2.90;;;;;;;;;;5020631;28;25056;-71